Time;durP1;ratioP1;P1;durP2;ratioP2;P2;SDS_P1;SDS_P2;PMS_P1;PMS_P2;Temp;Humidity;BMP_temperature;BMP_pressure;BME280_temperature;BME280_humidity;BME280_pressure;Samples;Min_cycle;Max_cycle;Signal;HPM_P1;HPM_P2
2021/06/12 00:00:22;;;;;;;11.52;5.40;;;;;;;19.88;74.40;100780.78;4788251;30;20070;-84
2021/06/12 00:03:26;;;;;;;7.85;5.45;;;;;;;19.76;74.87;100765.03;4789389;30;20062;-77
2021/06/12 00:06:30;;;;;;;8.95;5.45;;;;;;;19.74;75.00;100764.38;4789317;30;20076;-79
2021/06/12 00:09:35;;;;;;;7.07;5.00;;;;;;;19.73;75.06;100770.84;4778593;30;20059;-77
2021/06/12 00:12:41;;;;;;;5.97;5.07;;;;;;;19.62;75.08;100763.97;4776982;30;20412;-74
2021/06/12 00:15:46;;;;;;;8.02;5.03;;;;;;;19.65;75.21;100768.22;4788831;30;20070;-77
2021/06/12 00:18:50;;;;;;;7.03;5.78;;;;;;;19.68;74.71;100779.56;4789136;30;20062;-77
2021/06/12 00:21:55;;;;;;;8.32;5.22;;;;;;;19.61;75.02;100781.34;4789477;30;20054;-76
2021/06/12 00:24:59;;;;;;;7.47;5.00;;;;;;;19.61;74.89;100784.06;4785423;30;20511;-77
2021/06/12 00:28:06;;;;;;;6.72;5.18;;;;;;;19.62;74.46;100785.78;4788023;30;20416;-76
2021/06/12 00:31:10;;;;;;;7.05;5.47;;;;;;;19.60;74.60;100785.13;4788903;30;20419;-77
2021/06/12 00:34:14;;;;;;;6.22;5.53;;;;;;;19.54;74.71;100790.41;4789535;30;20058;-79
2021/06/12 00:37:18;;;;;;;7.03;5.25;;;;;;;19.44;74.87;100787.94;4776694;30;20531;-77
2021/06/12 00:40:23;;;;;;;8.00;5.45;;;;;;;19.46;74.76;100785.88;4787865;30;20498;-77
2021/06/12 00:43:28;;;;;;;6.63;5.40;;;;;;;19.43;74.83;100791.69;4779162;30;20058;-78
2021/06/12 00:46:33;;;;;;;7.15;4.90;;;;;;;19.41;75.25;100791.88;4778176;30;20062;-84
2021/06/12 00:49:38;;;;;;;7.35;5.00;;;;;;;19.41;75.03;100793.75;4790281;30;20054;-80
2021/06/12 00:52:43;;;;;;;8.57;5.18;;;;;;;19.45;74.78;100795.09;4782922;30;20058;-78
2021/06/12 00:55:47;;;;;;;6.28;5.68;;;;;;;19.47;74.89;100795.75;4788277;30;20050;-81
2021/06/12 00:58:52;;;;;;;6.18;5.40;;;;;;;19.48;74.82;100798.28;4788611;30;20074;-85
2021/06/12 01:01:57;;;;;;;7.35;4.93;;;;;;;19.48;74.57;100800.16;4789068;30;20059;-76
2021/06/12 01:05:01;;;;;;;6.20;5.07;;;;;;;19.55;74.32;100794.84;4787327;30;20054;-78
2021/06/12 01:08:06;;;;;;;6.75;5.32;;;;;;;19.56;74.04;100794.66;4786882;30;20055;-76
2021/06/12 01:11:11;;;;;;;9.75;5.50;;;;;;;19.65;73.76;100799.03;4787421;30;20058;-77
2021/06/12 01:14:18;;;;;;;11.27;5.32;;;;;;;19.52;74.02;100803.38;4788588;30;20392;-77
2021/06/12 01:17:33;;;;;;;7.28;5.20;;;;;;;19.58;74.04;100794.50;4787168;30;20518;-76
2021/06/12 01:20:56;;;;;;;6.13;4.80;;;;;;;19.64;74.08;100801.91;4788833;30;20054;-76
2021/06/12 01:24:20;;;;;;;6.68;4.88;;;;;;;19.73;73.52;100795.38;4786871;30;20074;-76
2021/06/12 01:27:51;;;;;;;6.97;5.55;;;;;;;19.51;73.74;100798.94;4789031;30;20046;-77
2021/06/12 01:30:56;;;;;;;8.43;5.75;;;;;;;19.40;74.12;100797.50;4787637;30;20059;-76
2021/06/12 01:34:03;;;;;;;8.23;5.65;;;;;;;19.39;74.34;100795.81;4786961;30;20062;-76
2021/06/12 01:37:11;;;;;;;7.97;5.40;;;;;;;19.31;74.40;100787.66;4787702;30;20165;-77
2021/06/12 01:40:20;;;;;;;5.97;5.32;;;;;;;19.26;74.79;100790.06;4788467;30;20050;-76
2021/06/12 01:43:25;;;;;;;8.27;5.72;;;;;;;19.20;74.84;100788.94;4784893;30;20412;-81
2021/06/12 01:46:30;;;;;;;9.48;6.15;;;;;;;19.18;75.05;100787.41;4787512;30;20054;-78
2021/06/12 01:49:36;;;;;;;5.93;5.30;;;;;;;19.14;75.02;100780.63;4777084;30;20054;-77
2021/06/12 01:52:43;;;;;;;6.57;5.53;;;;;;;19.17;75.04;100791.16;4785692;29;20058;-76
2021/06/12 01:55:49;;;;;;;9.35;5.72;;;;;;;19.20;75.25;100788.09;4777734;30;20074;-76
2021/06/12 01:58:53;;;;;;;7.25;5.85;;;;;;;19.20;74.99;100780.78;4787811;30;20056;-80
2021/06/12 02:02:01;;;;;;;9.70;5.40;;;;;;;19.32;75.01;100786.63;4788427;30;20070;-76
2021/06/12 02:05:23;;;;;;;6.40;5.80;;;;;;;19.34;74.93;100776.41;4752187;30;20153;-75
2021/06/12 02:08:18;;;;;;;7.20;6.50;;;;;;;19.26;74.92;100781.91;4756356;30;20145;-76
2021/06/12 02:11:25;;;;;;;6.93;6.18;;;;;;;19.20;75.10;100786.22;4748861;30;20044;-76
2021/06/12 02:14:30;;;;;;;7.75;6.00;;;;;;;19.18;74.80;100795.59;4750603;30;20609;-75
2021/06/12 02:17:36;;;;;;;7.53;6.20;;;;;;;19.03;75.74;100781.91;4750584;30;20534;-76
2021/06/12 02:20:42;;;;;;;12.88;6.57;;;;;;;18.96;75.73;100778.16;4748487;30;20043;-80
2021/06/12 02:23:50;;;;;;;10.65;6.38;;;;;;;18.90;75.76;100780.75;4750886;30;20048;-77
2021/06/12 02:26:42;;;;;;;6.72;6.03;;;;;;;18.88;75.81;100777.38;4756199;30;20047;-76
2021/06/12 02:29:50;;;;;;;6.60;5.90;;;;;;;18.92;75.76;100789.59;4749100;30;20059;-76
2021/06/12 02:32:59;;;;;;;7.63;6.10;;;;;;;18.90;75.51;100781.63;4750339;30;20067;-77
2021/06/12 02:36:05;;;;;;;6.93;6.30;;;;;;;18.84;75.88;100782.31;4748595;30;20055;-77
2021/06/12 02:39:09;;;;;;;16.17;6.80;;;;;;;18.80;76.12;100779.13;4749464;30;20052;-78
2021/06/12 02:42:13;;;;;;;10.57;6.57;;;;;;;18.72;76.38;100776.44;4773240;30;20054;-77
2021/06/12 02:45:18;;;;;;;15.88;7.88;;;;;;;18.73;76.11;100778.13;4787842;30;20051;-76
2021/06/12 02:48:27;;;;;;;7.78;6.97;;;;;;;18.68;76.58;100776.97;4785611;30;20055;-76
2021/06/12 02:51:38;;;;;;;13.23;7.50;;;;;;;18.61;76.47;100785.00;4787130;30;20058;-76
2021/06/12 02:54:48;;;;;;;9.57;7.15;;;;;;;18.58;76.66;100784.47;4785916;30;20058;-76
2021/06/12 02:57:53;;;;;;;8.13;6.90;;;;;;;18.63;76.46;100790.25;4787030;30;20083;-76
2021/06/12 03:00:58;;;;;;;7.07;6.38;;;;;;;18.60;76.74;100777.84;4787464;30;20514;-76
2021/06/12 03:04:04;;;;;;;7.72;6.93;;;;;;;18.57;76.77;100783.63;4787819;29;20055;-82
2021/06/12 03:07:10;;;;;;;7.38;6.60;;;;;;;18.52;77.05;100782.44;4789798;30;20050;-80
2021/06/12 03:10:16;;;;;;;7.82;7.03;;;;;;;18.54;77.03;100786.69;4779477;30;20062;-77
2021/06/12 03:13:26;;;;;;;9.43;6.72;;;;;;;18.55;76.69;100788.41;4778112;30;20415;-77
2021/06/12 03:16:31;;;;;;;8.85;6.15;;;;;;;18.53;76.56;100781.44;4788005;30;20074;-77
2021/06/12 03:19:37;;;;;;;8.63;6.22;;;;;;;18.52;76.71;100785.16;4788738;30;20098;-76
2021/06/12 03:22:47;;;;;;;8.45;6.57;;;;;;;18.56;76.44;100784.66;4789079;30;20487;-77
2021/06/12 03:25:53;;;;;;;6.85;6.15;;;;;;;18.60;76.26;100796.88;4787850;30;20060;-77
2021/06/12 03:28:58;;;;;;;13.07;5.68;;;;;;;18.55;75.82;100799.28;4779642;30;20412;-76
2021/06/12 03:32:03;;;;;;;7.70;5.82;;;;;;;18.58;75.55;100796.22;4788828;30;20054;-77
2021/06/12 03:35:09;;;;;;;6.15;5.53;;;;;;;18.63;75.07;100795.69;4789446;30;20407;-77
2021/06/12 03:38:14;;;;;;;8.10;5.70;;;;;;;18.57;74.85;100793.66;4789961;30;20058;-77
2021/06/12 03:41:20;;;;;;;8.43;5.97;;;;;;;18.60;74.92;100799.59;4790426;30;20059;-76
2021/06/12 03:44:26;;;;;;;10.35;5.72;;;;;;;18.59;74.82;100797.06;4788763;30;20058;-76
2021/06/12 03:47:32;;;;;;;7.70;5.70;;;;;;;18.57;74.76;100799.09;4789485;30;20059;-78
2021/06/12 03:50:39;;;;;;;6.38;5.30;;;;;;;18.61;74.38;100797.72;4790080;30;20110;-76
2021/06/12 03:53:44;;;;;;;6.53;5.85;;;;;;;18.64;74.11;100794.66;4777720;30;20054;-76
2021/06/12 03:56:48;;;;;;;7.10;5.40;;;;;;;18.68;73.93;100788.69;4789448;30;20050;-75
2021/06/12 03:59:53;;;;;;;9.10;5.10;;;;;;;18.75;72.98;100792.41;4778573;30;20050;-77
2021/06/12 04:02:58;;;;;;;7.82;5.03;;;;;;;18.84;72.75;100794.03;4790191;30;20054;-76
2021/06/12 04:06:02;;;;;;;8.30;4.60;;;;;;;19.00;72.03;100792.28;4788408;30;20519;-77
2021/06/12 04:09:07;;;;;;;5.00;4.43;;;;;;;19.12;71.44;100794.41;4779224;30;20050;-77
2021/06/12 04:12:13;;;;;;;7.15;4.30;;;;;;;19.34;70.63;100795.47;4789183;30;20046;-76
2021/06/12 04:15:17;;;;;;;5.35;4.60;;;;;;;19.52;70.08;100789.75;4789311;29;20111;-76
2021/06/12 04:18:22;;;;;;;5.63;4.40;;;;;;;19.82;69.07;100803.31;4776959;30;20067;-88
2021/06/12 04:21:26;;;;;;;7.90;4.72;;;;;;;20.11;68.01;100799.81;4777347;30;20510;-76
2021/06/12 04:24:30;;;;;;;4.57;3.65;;;;;;;20.56;66.61;100799.69;4789090;30;20062;-76
2021/06/12 04:27:35;;;;;;;7.70;4.40;;;;;;;21.08;65.13;100794.13;4778578;30;20055;-75
2021/06/12 04:30:39;;;;;;;6.28;4.25;;;;;;;21.60;63.55;100803.94;4774184;30;20058;-79
2021/06/12 04:33:44;;;;;;;7.60;3.85;;;;;;;22.12;62.09;100790.72;4776699;30;20046;-76
2021/06/12 04:36:48;;;;;;;6.93;4.13;;;;;;;22.31;61.32;100797.41;4787926;30;20051;-79
2021/06/12 04:39:52;;;;;;;6.32;4.03;;;;;;;22.30;61.01;100799.28;4788848;30;20054;-76
2021/06/12 04:42:57;;;;;;;6.80;4.20;;;;;;;22.62;60.62;100801.44;4778116;30;20050;-84
2021/06/12 04:46:01;;;;;;;8.27;4.15;;;;;;;22.96;59.41;100799.72;4780933;30;20055;-77
2021/06/12 04:49:06;;;;;;;7.25;4.53;;;;;;;23.26;58.19;100804.66;4787696;30;20050;-77
2021/06/12 04:52:11;;;;;;;27.48;24.67;;;;;;;23.46;57.81;100801.16;4788439;30;20510;-86
2021/06/12 04:55:16;;;;;;;18.77;15.50;;;;;;;23.30;58.22;100799.63;4788904;30;20039;-83
2021/06/12 04:58:21;;;;;;;9.77;5.35;;;;;;;23.43;58.17;100791.47;4789707;30;20415;-76
2021/06/12 05:01:26;;;;;;;7.57;4.63;;;;;;;24.20;55.95;100800.00;4789483;30;20412;-76
2021/06/12 05:04:30;;;;;;;4.68;3.95;;;;;;;24.70;54.25;100798.44;4788510;30;20054;-76
2021/06/12 05:07:35;;;;;;;5.18;3.83;;;;;;;25.02;53.14;100794.75;4788447;30;20510;-76
2021/06/12 05:10:39;;;;;;;7.32;3.80;;;;;;;25.85;51.29;100795.53;4788909;30;20054;-77
2021/06/12 05:13:44;;;;;;;7.35;3.88;;;;;;;26.12;50.37;100796.22;4787030;30;20062;-75
2021/06/12 05:16:49;;;;;;;6.32;3.38;;;;;;;26.67;48.99;100797.13;4787692;30;20058;-78
2021/06/12 05:19:54;;;;;;;6.50;3.95;;;;;;;27.03;47.83;100798.00;4788134;30;20059;-77
2021/06/12 05:22:59;;;;;;;5.07;3.38;;;;;;;28.37;44.30;100803.00;4788531;30;20054;-76
2021/06/12 05:26:05;;;;;;;5.35;3.10;;;;;;;29.59;42.25;100804.59;4786284;30;20054;-78
2021/06/12 05:29:09;;;;;;;7.43;3.40;;;;;;;30.77;39.38;100808.00;4776314;30;20058;-77
2021/06/12 05:32:14;;;;;;;8.38;3.28;;;;;;;32.15;36.77;100801.84;4787836;30;20054;-76
2021/06/12 05:35:18;;;;;;;16.60;3.50;;;;;;;33.56;34.09;100804.63;4788602;30;20531;-90
2021/06/12 05:38:23;;;;;;;6.68;2.97;;;;;;;34.20;32.80;100804.13;4784686;30;20070;-87
2021/06/12 05:41:27;;;;;;;6.22;2.60;;;;;;;35.67;30.36;100797.88;4765723;30;20499;-80
2021/06/12 05:44:31;;;;;;;9.90;3.10;;;;;;;36.38;29.64;100803.72;4787653;30;20050;-86
2021/06/12 05:47:36;;;;;;;6.45;2.58;;;;;;;38.04;27.55;100803.63;4788199;30;20062;-78
2021/06/12 05:50:40;;;;;;;6.65;2.47;;;;;;;39.34;26.75;100799.47;4787647;30;20054;-76
2021/06/12 05:53:45;;;;;;;3.80;2.20;;;;;;;40.99;24.92;100801.19;4786452;30;20066;-79
2021/06/12 05:56:49;;;;;;;5.78;2.38;;;;;;;40.08;25.79;100800.00;4787172;30;20050;-77
2021/06/12 05:59:53;;;;;;;8.02;2.78;;;;;;;40.36;25.52;100803.50;4767067;30;20053;-82
2021/06/12 06:02:58;;;;;;;6.57;1.92;;;;;;;41.42;23.96;100812.63;4776708;30;20050;-78
2021/06/12 06:06:02;;;;;;;5.75;2.72;;;;;;;42.22;23.22;100817.69;4785934;30;20490;-75
2021/06/12 06:09:07;;;;;;;3.50;2.00;;;;;;;42.23;22.85;100822.13;4786507;30;20078;-76
2021/06/12 06:12:11;;;;;;;7.15;2.28;;;;;;;42.67;22.92;100824.53;4786953;30;20403;-78
2021/06/12 06:15:16;;;;;;;8.05;2.05;;;;;;;44.19;21.72;100824.31;4787459;30;20050;-76
2021/06/12 06:18:21;;;;;;;7.28;2.58;;;;;;;44.94;20.32;100823.03;4787932;30;20050;-76
2021/06/12 06:21:25;;;;;;;5.20;1.92;;;;;;;44.14;21.06;100827.38;4775068;30;20054;-76
2021/06/12 06:24:30;;;;;;;6.93;2.20;;;;;;;45.29;20.79;100829.03;4775623;30;20051;-90
2021/06/12 06:27:35;;;;;;;7.90;2.10;;;;;;;45.92;19.88;100831.09;4787463;30;20507;-90
2021/06/12 06:30:39;;;;;;;7.28;2.10;;;;;;;45.73;19.29;100830.88;4787925;30;20050;-87
2021/06/12 06:33:44;;;;;;;3.70;2.15;;;;;;;45.87;19.60;100839.84;4785713;30;20062;-87
2021/06/12 06:36:48;;;;;;;3.30;2.13;;;;;;;44.72;20.03;100835.56;4788530;30;20502;-91
2021/06/12 06:39:52;;;;;;;3.30;2.40;;;;;;;45.58;19.82;100838.09;4792794;30;20058;-88
2021/06/12 06:42:57;;;;;;;6.50;2.60;;;;;;;46.87;18.81;100830.13;4793021;30;20050;-89
2021/06/12 06:46:01;;;;;;;5.45;2.50;;;;;;;47.67;18.39;100828.50;4793360;30;20066;-85
2021/06/12 06:49:06;;;;;;;6.00;2.40;;;;;;;48.03;18.23;100826.44;4793208;30;20070;-87
2021/06/12 06:52:11;;;;;;;7.53;3.35;;;;;;;48.59;17.43;100830.47;4792056;30;20213;-80
2021/06/12 06:55:17;;;;;;;6.35;2.78;;;;;;;48.08;18.46;100838.34;4781217;30;20522;-81
2021/06/12 06:58:21;;;;;;;6.05;3.13;;;;;;;48.25;18.46;100839.94;4792122;30;20066;-74
2021/06/12 07:01:26;;;;;;;9.77;3.05;;;;;;;48.59;18.48;100839.03;4792150;30;20058;-75
2021/06/12 07:04:32;;;;;;;9.45;3.65;;;;;;;47.04;18.88;100853.34;4791499;30;20072;-74
2021/06/12 07:07:36;;;;;;;14.32;4.15;;;;;;;47.70;18.85;100844.81;4791865;30;20074;-74
2021/06/12 07:10:41;;;;;;;10.07;4.43;;;;;;;48.30;18.31;100842.50;4790366;30;20047;-74
2021/06/12 07:13:45;;;;;;;8.85;5.68;;;;;;;48.52;18.12;100838.06;4779059;30;20051;-74
2021/06/12 07:16:49;;;;;;;8.68;5.55;;;;;;;47.84;18.58;100847.22;4779463;30;20412;-74
2021/06/12 07:19:54;;;;;;;10.48;7.38;;;;;;;47.83;19.26;100847.59;4790557;30;20078;-74
2021/06/12 07:22:58;;;;;;;7.40;6.38;;;;;;;46.68;20.27;100858.44;4790553;30;20047;-74
2021/06/12 07:26:03;;;;;;;11.55;8.45;;;;;;;46.34;20.26;100855.09;4790468;30;20054;-74
2021/06/12 07:29:11;;;;;;;7.63;6.82;;;;;;;46.95;20.57;100854.72;4791763;30;20055;-74
2021/06/12 07:32:16;;;;;;;11.82;6.93;;;;;;;47.15;20.35;100858.50;4791661;30;20055;-73
2021/06/12 07:35:20;;;;;;;11.65;5.70;;;;;;;46.23;20.52;100859.59;4791344;30;20055;-76
2021/06/12 07:38:25;;;;;;;9.00;6.95;;;;;;;45.16;21.16;100859.41;4780304;30;20391;-74
2021/06/12 07:41:31;;;;;;;10.27;7.03;;;;;;;44.71;22.44;100856.59;4791838;30;20070;-74
2021/06/12 07:44:36;;;;;;;8.32;6.00;;;;;;;44.70;22.66;100854.94;4791348;30;20058;-73
2021/06/12 07:47:40;;;;;;;9.98;8.07;;;;;;;45.68;20.77;100842.50;4791027;30;20059;-73
2021/06/12 07:50:44;;;;;;;10.93;7.10;;;;;;;46.25;20.66;100845.84;4779117;30;20046;-73
2021/06/12 07:53:49;;;;;;;17.88;6.80;;;;;;;46.61;20.81;100852.56;4791180;30;20490;-73
2021/06/12 07:56:53;;;;;;;10.27;6.72;;;;;;;47.64;19.72;100851.19;4791254;30;20055;-78
2021/06/12 07:59:58;;;;;;;9.70;5.95;;;;;;;47.52;19.69;100848.47;4780143;30;20059;-77
2021/06/12 08:03:03;;;;;;;7.78;6.68;;;;;;;46.43;20.90;100844.38;4791481;30;20050;-73
2021/06/12 08:06:08;;;;;;;11.32;7.25;;;;;;;46.52;20.59;100849.09;4791175;30;20066;-73
2021/06/12 08:09:12;;;;;;;11.52;8.85;;;;;;;43.48;23.37;100844.16;4791033;30;20044;-73
2021/06/12 08:12:17;;;;;;;14.80;9.40;;;;;;;40.64;26.66;100845.25;4790950;30;20054;-76
2021/06/12 08:15:23;;;;;;;14.00;8.93;;;;;;;39.20;29.26;100845.56;4791007;30;20054;-78
2021/06/12 08:18:27;;;;;;;10.07;9.10;;;;;;;38.84;29.65;100840.63;4790601;30;20050;-74
2021/06/12 08:21:32;;;;;;;9.75;8.20;;;;;;;37.64;31.02;100841.50;4790826;30;20075;-81
2021/06/12 08:24:36;;;;;;;9.07;8.05;;;;;;;37.33;31.72;100840.22;4779665;30;20055;-74
2021/06/12 08:27:41;;;;;;;12.27;10.98;;;;;;;36.59;32.52;100843.56;4790805;30;20047;-75
2021/06/12 08:30:50;;;;;;;11.27;10.18;;;;;;;35.91;33.18;100839.88;4790444;30;20051;-81
2021/06/12 08:33:55;;;;;;;13.52;11.45;;;;;;;35.24;34.21;100844.13;4790647;30;20404;-74
2021/06/12 08:37:02;;;;;;;14.05;12.75;;;;;;;35.38;34.86;100837.94;4790572;30;20055;-76
2021/06/12 08:40:07;;;;;;;17.55;11.77;;;;;;;34.97;35.07;100845.59;4790532;30;20051;-74
2021/06/12 08:43:12;;;;;;;11.40;10.30;;;;;;;34.78;35.40;100845.38;4790443;30;20051;-74
2021/06/12 08:46:17;;;;;;;15.85;14.25;;;;;;;34.29;36.14;100841.50;4790626;30;20048;-79
2021/06/12 08:49:21;;;;;;;18.25;16.02;;;;;;;33.79;37.14;100840.31;4790276;30;20051;-75
2021/06/12 08:52:25;;;;;;;17.52;13.70;;;;;;;33.56;37.58;100842.75;4790498;30;20055;-75
2021/06/12 08:55:30;;;;;;;20.23;17.33;;;;;;;32.88;38.75;100847.44;4790237;30;20055;-78
2021/06/12 08:58:35;;;;;;;14.98;13.43;;;;;;;33.05;38.54;100847.28;4790422;30;20051;-84
2021/06/12 09:01:40;;;;;;;19.65;17.63;;;;;;;32.74;39.00;100841.50;4789974;29;20425;-82
2021/06/12 09:04:50;;;;;;;19.33;16.75;;;;;;;32.42;40.05;100848.19;4789918;30;20055;-85
2021/06/12 09:08:14;;;;;;;18.58;15.07;;;;;;;32.51;40.39;100839.13;4789889;30;20055;-82
2021/06/12 09:11:19;;;;;;;18.33;16.20;;;;;;;32.17;40.40;100845.22;4789710;30;20051;-83
2021/06/12 09:14:24;;;;;;;18.55;15.02;;;;;;;32.13;40.69;100836.56;4789817;30;20043;-74
2021/06/12 09:17:46;;;;;;;16.33;12.82;;;;;;;32.14;40.91;100829.91;4789681;30;20047;-74
2021/06/12 09:20:51;;;;;;;19.65;17.70;;;;;;;32.13;40.96;100828.22;4789793;30;20043;-74
2021/06/12 09:23:57;;;;;;;24.85;17.85;;;;;;;31.70;42.03;100834.72;4789675;30;20047;-73
2021/06/12 09:27:08;;;;;;;19.20;17.30;;;;;;;31.57;42.07;100828.75;4778385;30;20059;-74
2021/06/12 09:30:13;;;;;;;18.40;16.60;;;;;;;31.33;41.97;100828.19;4778435;30;20055;-73
2021/06/12 09:33:36;;;;;;;16.10;14.13;;;;;;;31.53;41.24;100820.94;4778253;30;20051;-73
2021/06/12 09:36:42;;;;;;;17.38;14.80;;;;;;;31.49;40.61;100814.25;4777734;30;20119;-73
2021/06/12 09:39:56;;;;;;;14.43;13.02;;;;;;;31.46;40.76;100813.91;4788897;30;20391;-73
2021/06/12 09:43:01;;;;;;;14.32;13.02;;;;;;;31.56;41.03;100808.47;4788943;30;20058;-73
2021/06/12 09:46:32;;;;;;;13.05;11.65;;;;;;;31.33;40.07;100804.03;4788883;30;20047;-74
2021/06/12 09:49:39;;;;;;;11.40;8.30;;;;;;;31.43;41.15;100804.13;4789099;30;20059;-73
2021/06/12 09:52:51;;;;;;;9.35;8.38;;;;;;;31.62;40.20;100798.28;4788733;30;20066;-73
2021/06/12 09:56:09;;;;;;;13.40;12.05;;;;;;;31.83;40.23;100791.78;4777365;30;20055;-74
2021/06/12 09:59:19;;;;;;;12.45;11.30;;;;;;;31.88;39.83;100789.06;4777484;30;20051;-74
2021/06/12 10:02:47;;;;;;;10.10;9.05;;;;;;;31.51;38.62;100789.00;4788430;30;20043;-73
2021/06/12 10:06:20;;;;;;;10.23;8.27;;;;;;;31.10;38.56;100784.91;4788535;30;20055;-74
2021/06/12 10:09:25;;;;;;;;;;;;;;;30.75;38.53;100778.84;4777945;30;20054;-73
2021/06/12 10:12:29;;;;;;;12.48;5.60;;;;;;;30.81;38.34;100780.59;4788031;30;19949;-74
2021/06/12 10:15:35;;;;;;;5.93;4.30;;;;;;;31.27;37.31;100780.09;4788328;30;20119;-73
2021/06/12 10:18:41;;;;;;;9.23;4.18;;;;;;;31.59;37.44;100773.81;4788383;30;20058;-74
2021/06/12 10:21:47;;;;;;;7.20;4.22;;;;;;;31.70;36.22;100762.53;4777402;30;20062;-73
2021/06/12 10:24:53;;;;;;;5.80;3.83;;;;;;;31.80;33.99;100767.34;4788835;30;20059;-74
2021/06/12 10:27:58;;;;;;;5.18;3.63;;;;;;;31.86;33.34;100763.50;4788118;30;20058;-73
2021/06/12 10:31:06;;;;;;;4.55;3.20;;;;;;;31.87;32.77;100763.25;4788334;30;20062;-73
2021/06/12 10:34:11;;;;;;;5.40;3.28;;;;;;;32.00;32.34;100759.22;4788551;30;20070;-73
2021/06/12 10:37:17;;;;;;;6.30;3.92;;;;;;;31.64;33.91;100757.19;4788258;30;20054;-73
2021/06/12 10:40:52;;;;;;;8.73;4.10;;;;;;;31.27;35.99;100752.34;4777031;30;20058;-73
2021/06/12 10:43:59;;;;;;;4.35;3.40;;;;;;;31.25;35.44;100748.16;4733026;30;20116;-73
2021/06/12 10:47:04;;;;;;;3.97;3.40;;;;;;;31.32;35.91;100741.31;4722512;30;20067;-73
2021/06/12 10:50:41;;;;;;;5.65;3.42;;;;;;;31.55;36.85;100733.81;4733087;30;20055;-73
2021/06/12 10:53:52;;;;;;;6.82;3.60;;;;;;;31.69;36.39;100727.56;4722691;30;20048;-73
2021/06/12 10:57:03;;;;;;;6.55;3.40;;;;;;;31.76;34.79;100716.22;4732728;30;20059;-74
2021/06/12 11:00:09;;;;;;;4.10;3.50;;;;;;;31.70;34.39;100715.31;4733088;30;20060;-73
2021/06/12 11:03:57;;;;;;;5.35;3.60;;;;;;;31.81;34.59;100719.03;4733307;30;20121;-74
2021/06/12 11:07:23;;;;;;;6.53;3.13;;;;;;;31.61;33.49;100711.38;4733439;30;20445;-73
2021/06/12 11:10:28;;;;;;;5.45;2.88;;;;;;;31.44;33.41;100714.28;4733250;30;20189;-74
2021/06/12 11:13:34;;;;;;;5.50;3.53;;;;;;;31.61;33.70;100710.53;4733400;30;20056;-76
2021/06/12 11:16:38;;;;;;;7.47;5.60;;;;;;;31.69;34.54;100710.91;4733231;30;20072;-73
2021/06/12 11:19:50;;;;;;;4.18;3.08;;;;;;;31.74;34.04;100719.25;4750784;30;20059;-74
2021/06/12 11:22:59;;;;;;;4.88;2.70;;;;;;;31.62;33.11;100723.31;4770215;30;20059;-73
2021/06/12 11:26:06;;;;;;;4.88;2.72;;;;;;;31.66;33.80;100710.56;4773039;30;20051;-82
2021/06/12 11:29:14;;;;;;;3.97;3.00;;;;;;;31.53;34.51;100711.84;4773212;30;20075;-83
2021/06/12 11:32:28;;;;;;;6.20;3.00;;;;;;;31.56;34.02;100710.47;4773841;30;20058;-83
2021/06/12 11:35:39;;;;;;;3.53;2.70;;;;;;;31.41;34.13;100708.38;4774374;30;20063;-79
2021/06/12 11:38:44;;;;;;;5.72;3.00;;;;;;;31.31;34.17;100703.56;4771881;30;20078;-83
2021/06/12 11:41:51;;;;;;;6.05;2.75;;;;;;;31.21;34.46;100697.91;4767620;30;20055;-81
2021/06/12 11:44:56;;;;;;;3.97;2.90;;;;;;;31.05;34.64;100698.00;4755868;30;20055;-80
2021/06/12 11:48:21;;;;;;;4.43;2.78;;;;;;;30.82;35.03;100699.94;4766376;30;20070;-74
2021/06/12 11:51:32;;;;;;;4.65;2.90;;;;;;;30.73;34.28;100697.88;4783924;29;20055;-73
2021/06/12 11:54:36;;;;;;;4.55;2.75;;;;;;;30.81;34.59;100686.34;4791142;30;20054;-74
2021/06/12 11:57:50;;;;;;;4.72;2.90;;;;;;;30.86;35.12;100701.09;4788071;29;20113;-75
2021/06/12 12:00:55;;;;;;;5.07;2.70;;;;;;;30.78;35.19;100693.25;4786132;30;20078;-79
2021/06/12 12:04:08;;;;;;;7.05;3.08;;;;;;;30.88;35.23;100703.63;4779693;30;20055;-74
2021/06/12 12:07:14;;;;;;;4.30;3.17;;;;;;;31.02;35.65;100688.28;4790416;30;20075;-78
2021/06/12 12:10:25;;;;;;;3.97;3.30;;;;;;;31.12;36.00;100688.38;4784836;29;20050;-75
2021/06/12 12:13:35;;;;;;;7.35;3.88;;;;;;;31.02;36.25;100685.50;4772855;30;20064;-79
2021/06/12 12:16:40;;;;;;;6.43;3.30;;;;;;;31.13;36.00;100692.00;4779253;29;20055;-77
2021/06/12 12:19:44;;;;;;;3.42;2.75;;;;;;;31.18;35.84;100687.34;4787845;29;20420;-79
2021/06/12 12:22:49;;;;;;;4.03;2.65;;;;;;;31.25;35.42;100682.44;4789122;29;20408;-78
2021/06/12 12:26:15;;;;;;;6.03;2.58;;;;;;;31.42;35.19;100680.38;4788640;30;20064;-83
2021/06/12 12:29:23;;;;;;;5.95;2.85;;;;;;;31.51;34.62;100683.53;4779604;30;20058;-79
2021/06/12 12:32:28;;;;;;;5.05;2.60;;;;;;;31.55;34.23;100669.97;4769706;30;20158;-78
2021/06/12 12:35:32;;;;;;;5.43;3.58;;;;;;;31.45;34.09;100671.53;4789251;29;20391;-75
2021/06/12 12:38:37;;;;;;;4.28;2.58;;;;;;;31.24;33.58;100674.34;4789751;30;20054;-84
2021/06/12 12:41:54;;;;;;;5.60;2.83;;;;;;;31.13;33.12;100667.88;4789923;29;20058;-84
2021/06/12 12:44:58;;;;;;;5.30;2.63;;;;;;;31.12;33.51;100660.66;4790155;30;20054;-84
2021/06/12 12:48:04;;;;;;;4.70;2.63;;;;;;;30.97;34.27;100662.41;4774800;30;20062;-84
2021/06/12 12:51:08;;;;;;;6.00;2.60;;;;;;;30.83;35.37;100659.19;4790545;30;20063;-83
2021/06/12 12:54:14;;;;;;;3.15;2.40;;;;;;;30.88;34.42;100650.94;4790597;30;20400;-84
2021/06/12 12:57:19;;;;;;;5.07;2.67;;;;;;;30.97;34.38;100649.38;4789914;30;20062;-73
2021/06/12 13:00:33;;;;;;;3.25;2.60;;;;;;;31.10;34.62;100643.44;4789682;30;20408;-74
2021/06/12 13:03:43;;;;;;;7.13;2.90;;;;;;;31.05;35.61;100637.84;4790109;30;20054;-74
2021/06/12 13:06:47;;;;;;;6.45;3.10;;;;;;;30.98;35.76;100647.47;4778973;30;20058;-74
2021/06/12 13:09:58;;;;;;;4.30;3.15;;;;;;;30.92;35.66;100634.63;4788908;30;20115;-74
2021/06/12 13:13:05;;;;;;;3.35;2.50;;;;;;;30.84;34.69;100633.97;4790126;30;20058;-75
2021/06/12 13:16:09;;;;;;;4.00;2.72;;;;;;;30.86;35.07;100639.28;4789951;30;20050;-74
2021/06/12 13:19:20;;;;;;;6.05;3.03;;;;;;;30.77;35.33;100641.66;4789655;30;20050;-75
2021/06/12 13:22:34;;;;;;;4.85;3.20;;;;;;;30.74;35.32;100635.78;4787637;29;20074;-75
2021/06/12 13:25:38;;;;;;;4.22;2.88;;;;;;;30.75;34.88;100635.53;4789080;30;20054;-74
2021/06/12 13:28:43;;;;;;;9.80;4.43;;;;;;;30.71;35.21;100633.56;4773981;29;20055;-75
2021/06/12 13:31:49;;;;;;;13.10;5.97;;;;;;;30.76;35.66;100631.66;4784862;30;20062;-75
2021/06/12 13:34:55;;;;;;;8.30;3.63;;;;;;;30.86;36.27;100628.19;4786584;29;20058;-82
2021/06/12 13:38:20;;;;;;;7.70;3.30;;;;;;;30.76;36.05;100630.84;4788340;30;20076;-75
2021/06/12 13:41:25;;;;;;;4.35;2.95;;;;;;;30.68;36.00;100629.38;4771464;29;20074;-77
2021/06/12 13:44:30;;;;;;;6.47;2.85;;;;;;;30.67;36.27;100621.28;4787224;30;20174;-75
2021/06/12 13:47:35;;;;;;;4.60;3.28;;;;;;;30.66;35.75;100623.25;4787918;29;20051;-76
2021/06/12 13:50:40;;;;;;;5.50;3.20;;;;;;;30.66;36.00;100614.94;4786593;29;20514;-76
2021/06/12 13:53:47;;;;;;;5.65;3.22;;;;;;;30.77;35.96;100610.31;4777814;30;20051;-75
2021/06/12 13:56:51;;;;;;;7.10;3.20;;;;;;;30.85;35.84;100610.72;4788852;30;20046;-82
2021/06/12 13:59:56;;;;;;;4.35;3.50;;;;;;;30.69;35.64;100603.31;4784846;30;20054;-79
2021/06/12 14:03:01;;;;;;;7.35;3.22;;;;;;;30.72;36.03;100593.63;4787272;29;20107;-75
2021/06/12 14:06:07;;;;;;;3.85;2.78;;;;;;;30.91;35.85;100594.16;4782952;30;20054;-75
2021/06/12 14:09:11;;;;;;;4.95;3.25;;;;;;;30.89;36.10;100597.13;4789808;29;20057;-74
2021/06/12 14:12:15;;;;;;;3.30;3.00;;;;;;;30.85;36.24;100598.78;4769929;30;20062;-75
2021/06/12 14:15:19;;;;;;;4.15;3.10;;;;;;;30.85;35.82;100596.00;4771213;30;20137;-75
2021/06/12 14:18:24;;;;;;;4.88;3.42;;;;;;;30.85;35.16;100590.47;4771067;30;20054;-74
2021/06/12 14:21:28;;;;;;;4.07;3.00;;;;;;;30.92;35.71;100587.50;4770166;30;20067;-78
2021/06/12 14:24:33;;;;;;;5.75;2.67;;;;;;;30.99;35.79;100586.19;4759702;30;20067;-76